Goshen, New York
Current Conditions -  °F | °C
As of 1:54 PM on Sunday 23 Nov 2014 (Local Time) from KMGJ Reporting Station
Clear Clear  
Wind Chill: 13°   Ceiling: Unl
Heat Index: 13°   Visibility: 10mi
Dew Point: -3°   Wind: 6mph
Humidity: 32%   Direction: 220°SW
Pressure: 30.08"   Gusts: NA
Location:  41.41°N, 74.32°W
Report Text: KMGJ 231854Z AUTO 22005KT 10SM CLR 13/M03 A3008 RMK AO2 SLP189 T01331033 TSNO
Loading
Personal Weather Stations






























Interactive Weather Map New forecast layout! Learn more

10-Day Weather Forecast

Advertisements
Track Severe Weather on mobile